This is the latest recevied weather packets stored in our database for station/object DG4CB-13. If no packets are shown the sender has not sent any weather packets the latest 10 day(s).
| Time | Temp. | Humidity | Pressure | Rain* | Wind** | Luminosity | Snow |
|---|---|---|---|---|---|---|---|
| 1787873400 | 22.22° C | 76% | 1007.6 hPa | - | - | - | - |
| 1787872800 | 22.22° C | 75% | 1007.8 hPa | - | - | - | - |
| 1787872200 | 22.22° C | 75% | 1007.9 hPa | - | - | - | - |
| 1787871599 | 22.22° C | 75% | 1008.1 hPa | - | - | - | - |
| 1787871000 | 22.78° C | 72% | 1008.3 hPa | - | - | - | - |
| 1787870400 | 22.78° C | 72% | 1008.3 hPa | - | - | - | - |
| 1787869800 | 22.78° C | 72% | 1008.3 hPa | - | - | - | - |
| 1787869199 | 22.78° C | 72% | 1008.5 hPa | - | - | - | - |
| 1787868600 | 22.78° C | 71% | 1008.6 hPa | - | - | - | - |
| 1787868002 | 23.33° C | 71% | 1008.8 hPa | - | - | - | - |
| 1787867400 | 23.33° C | 71% | 1008.6 hPa | - | - | - | - |
| 1787866800 | 23.33° C | 70% | 1008.8 hPa | - | - | - | - |
| 1787866199 | 23.89° C | 69% | 1008.9 hPa | - | - | - | - |
| 1787865599 | 23.89° C | 68% | 1008.9 hPa | - | - | - | - |
| 1787864999 | 23.89° C | 67% | 1009.2 hPa | - | - | - | - |
| 1787864399 | 23.89° C | 66% | 1009.3 hPa | - | - | - | - |
| 1787863799 | 24.44° C | 65% | 1009.3 hPa | - | - | - | - |
| 1787863200 | 25° C | 64% | 1009.1 hPa | - | - | - | - |
| 1787862601 | 25° C | 59% | 1009.6 hPa | - | - | - | - |
| 1787857801 | 27.22° C | 50% | 1009.4 hPa | - | - | - | - |
| 1787855403 | 28.33° C | 45% | 1009.1 hPa | - | - | - | - |
| 1787854805 | 28.89° C | 44% | 1009.2 hPa | - | - | - | - |
| 1787854200 | 29.44° C | 43% | 1009.2 hPa | - | - | - | - |
| 1787853600 | 29.44° C | 42% | 1009.4 hPa | - | - | - | - |
| 1787853000 | 30° C | 42% | 1009.4 hPa | - | - | - | - |
* Rain since midnight (hover to see other rain measurements)
** Current wind speed in m/s (hover to see current wind gust speed)